Time;durP1;ratioP1;P1;durP2;ratioP2;P2;SDS_P1;SDS_P2;PMS_P1;PMS_P2;Temp;Humidity;BMP_temperature;BMP_pressure;BME280_temperature;BME280_humidity;BME280_pressure;Samples;Min_cycle;Max_cycle;Signal;HPM_P1;HPM_P2
2022/09/27 00:04:13;;;;;;;1.08;0.20;;;;;;;19.35;53.74;99765.03;16119223;19;130186;-50
2022/09/27 00:09:35;;;;;;;0.20;0.17;;;;;;;19.33;53.38;99783.88;16124427;19;129327;-52
2022/09/27 00:14:56;;;;;;;1.25;0.40;;;;;;;19.33;53.96;99778.34;16120976;19;130732;-59
2022/09/27 00:20:20;;;;;;;0.75;0.20;;;;;;;19.31;53.56;99800.81;16120038;19;129403;-65
2022/09/27 00:25:42;;;;;;;0.50;0.30;;;;;;;19.30;53.52;99804.69;16121306;19;129568;-56
2022/09/27 00:31:04;;;;;;;1.48;0.25;;;;;;;19.29;53.38;99808.59;16126079;19;130196;-50
2022/09/27 00:36:27;;;;;;;1.30;0.20;;;;;;;19.28;53.74;99818.00;16128778;19;130149;-53
2022/09/27 00:41:49;;;;;;;1.40;0.28;;;;;;;19.27;53.46;99821.03;16138294;19;129566;-50
2022/09/27 00:47:34;;;;;;;0.98;0.25;;;;;;;19.25;53.20;99820.50;16134308;19;133747;-51
2022/09/27 00:53:09;;;;;;;0.47;0.20;;;;;;;19.25;53.27;99834.38;16134671;19;134047;-50
2022/09/27 00:58:36;;;;;;;1.33;0.30;;;;;;;19.22;53.28;99836.59;16132984;19;130314;-48
2022/09/27 01:04:06;;;;;;;1.95;0.30;;;;;;;19.21;53.44;99839.63;16135725;19;129155;-49
2022/09/27 01:09:29;;;;;;;0.50;0.22;;;;;;;19.19;53.20;99826.00;16136208;19;130571;-51
2022/09/27 01:14:53;;;;;;;0.90;0.40;;;;;;;19.20;53.59;99821.31;16133516;19;129187;-54
2022/09/27 01:20:39;;;;;;;0.82;0.13;;;;;;;19.20;53.30;99832.41;16135382;19;129566;-49
2022/09/27 01:26:49;;;;;;;0.75;0.20;;;;;;;19.20;53.48;99843.50;16136226;19;129491;-49
2022/09/27 01:32:22;;;;;;;0.77;0.20;;;;;;;19.18;53.29;99851.25;16124018;19;135463;-53
2022/09/27 01:37:54;;;;;;;0.45;0.20;;;;;;;19.17;53.49;99869.00;16123065;19;129795;-55
2022/09/27 01:43:21;;;;;;;0.55;0.20;;;;;;;19.17;53.40;99869.00;16125798;19;129562;-51
2022/09/27 01:48:47;;;;;;;1.55;0.20;;;;;;;19.15;53.07;99862.88;16124276;19;130950;-52
2022/09/27 01:54:13;;;;;;;0.20;0.10;;;;;;;19.14;53.05;99850.13;16123403;19;129590;-50
2022/09/27 01:59:49;;;;;;;0.10;0.10;;;;;;;19.14;53.33;99850.13;16123584;19;130284;-52
2022/09/27 02:05:13;;;;;;;0.50;0.13;;;;;;;19.12;53.18;99853.19;16123304;19;129670;-51
2022/09/27 02:10:42;;;;;;;0.82;0.10;;;;;;;19.13;53.21;99856.78;16132576;19;129042;-49
2022/09/27 02:16:27;;;;;;;0.88;0.20;;;;;;;19.12;53.47;99861.50;16132642;19;129371;-49
2022/09/27 02:22:05;;;;;;;0.50;0.10;;;;;;;19.11;53.35;99872.84;16130137;19;130318;-51
2022/09/27 02:27:33;;;;;;;0.10;0.10;;;;;;;19.10;53.25;99860.94;16127203;19;129430;-50
2022/09/27 02:32:54;;;;;;;1.40;0.20;;;;;;;19.08;53.38;99857.63;16131771;19;129559;-52
2022/09/27 02:38:16;;;;;;;0.47;0.17;;;;;;;19.08;53.39;99863.97;16129112;19;131185;-51
2022/09/27 02:43:38;;;;;;;0.03;0.00;;;;;;;19.07;53.12;99865.13;16129422;19;129217;-49
2022/09/27 02:49:37;;;;;;;0.40;0.10;;;;;;;19.07;53.13;99867.88;16131319;19;129601;-51
2022/09/27 02:54:59;;;;;;;0.15;0.05;;;;;;;19.04;53.31;99860.09;16128789;19;129309;-51
2022/09/27 03:00:26;;;;;;;0.00;0.00;;;;;;;19.05;53.14;99859.00;16131109;19;129706;-52
2022/09/27 03:05:57;;;;;;;0.20;0.00;;;;;;;19.05;53.29;99852.59;16127829;19;129648;-51
2022/09/27 03:11:19;;;;;;;0.68;0.08;;;;;;;19.04;53.48;99862.03;16125891;19;129337;-49
2022/09/27 03:16:41;;;;;;;0.50;0.15;;;;;;;19.04;53.06;99856.50;16126327;19;129780;-49
2022/09/27 03:22:02;;;;;;;0.20;0.10;;;;;;;19.02;53.26;99851.22;16125400;19;129521;-54
2022/09/27 03:27:24;;;;;;;0.03;0.00;;;;;;;19.02;53.49;99859.53;16125791;19;129583;-50
2022/09/27 03:32:46;;;;;;;0.10;0.05;;;;;;;19.01;53.48;99855.09;16126459;19;129965;-51
2022/09/27 03:38:09;;;;;;;0.38;0.08;;;;;;;19.01;53.27;99845.97;16126670;19;129222;-51
2022/09/27 03:43:31;;;;;;;0.30;0.10;;;;;;;19.00;53.18;99853.44;16127269;19;134268;-51
2022/09/27 03:48:53;;;;;;;0.10;0.10;;;;;;;19.00;53.28;99864.53;16128926;19;129102;-49
2022/09/27 03:54:14;;;;;;;1.40;0.15;;;;;;;19.00;53.35;99875.63;16125873;19;129016;-50
2022/09/27 03:59:36;;;;;;;0.22;0.13;;;;;;;18.99;53.39;99875.91;16126759;19;130677;-51
2022/09/27 04:04:58;;;;;;;0.63;0.10;;;;;;;18.99;53.41;99878.69;16136896;19;129292;-51
2022/09/27 04:10:20;;;;;;;1.80;0.00;;;;;;;18.98;53.36;99855.66;16140126;19;129647;-51
2022/09/27 04:15:42;;;;;;;0.10;0.00;;;;;;;18.98;53.36;99852.06;16138431;19;130379;-51
2022/09/27 04:21:04;;;;;;;0.30;0.10;;;;;;;18.96;53.15;99865.34;16136959;19;128966;-53
2022/09/27 04:26:25;;;;;;;0.57;0.20;;;;;;;18.97;53.14;99858.72;16135013;19;129721;-54
2022/09/27 04:31:47;;;;;;;0.55;0.13;;;;;;;18.96;53.09;99860.63;16136216;19;129350;-52
2022/09/27 04:37:10;;;;;;;0.32;0.08;;;;;;;18.94;53.32;99865.66;16135247;19;130466;-50
2022/09/27 04:42:32;;;;;;;0.70;0.10;;;;;;;18.94;53.41;99854.56;16136990;19;129390;-51
2022/09/27 04:47:54;;;;;;;0.47;0.10;;;;;;;18.93;53.16;99861.19;16138488;19;129790;-52
2022/09/27 04:53:16;;;;;;;0.00;0.00;;;;;;;18.93;53.04;99877.84;16138585;19;133243;-52
2022/09/27 04:58:38;;;;;;;0.10;0.00;;;;;;;18.93;53.02;99897.22;16134658;19;129878;-51
2022/09/27 05:04:00;;;;;;;0.35;0.08;;;;;;;18.91;52.81;99896.66;16134989;19;130064;-51
2022/09/27 05:09:22;;;;;;;2.30;0.10;;;;;;;18.90;53.08;99889.47;16134339;19;130484;-53
2022/09/27 05:14:43;;;;;;;0.10;0.10;;;;;;;18.91;52.92;99888.34;16133286;19;129792;-52
2022/09/27 05:20:05;;;;;;;1.55;0.10;;;;;;;18.90;53.00;99878.38;16135320;19;129918;-51
2022/09/27 05:25:27;;;;;;;0.25;0.10;;;;;;;18.90;52.94;99867.28;16135096;19;129441;-52
2022/09/27 05:30:49;;;;;;;0.45;0.10;;;;;;;18.92;53.05;99884.47;16134478;19;129988;-49
2022/09/27 05:36:11;;;;;;;0.43;0.08;;;;;;;18.91;52.82;99871.72;16130988;19;133851;-50
2022/09/27 05:41:33;;;;;;;0.45;0.15;;;;;;;18.91;53.03;99860.63;16130233;19;129239;-50
2022/09/27 05:46:55;;;;;;;0.70;0.10;;;;;;;18.90;53.05;99856.19;16133375;19;130208;-50
2022/09/27 05:52:17;;;;;;;0.03;0.00;;;;;;;18.90;53.01;99858.97;16129967;19;129896;-50
2022/09/27 05:57:41;;;;;;;0.73;0.10;;;;;;;18.88;53.09;99870.34;16128801;19;129465;-53
2022/09/27 06:03:05;;;;;;;6.13;0.40;;;;;;;18.88;52.72;99870.34;16128185;19;129687;-49
2022/09/27 06:08:26;;;;;;;5.18;0.22;;;;;;;18.88;52.55;99856.50;16127747;19;129926;-54
2022/09/27 06:13:48;;;;;;;1.13;0.20;;;;;;;18.87;52.94;99845.66;16128639;19;129404;-49
2022/09/27 06:19:10;;;;;;;0.70;0.10;;;;;;;18.86;52.63;99850.38;16130104;19;129555;-51
2022/09/27 06:24:32;;;;;;;1.02;0.10;;;;;;;18.85;52.61;99853.41;16128522;19;129585;-54
2022/09/27 06:29:54;;;;;;;1.75;0.10;;;;;;;18.85;52.57;99847.88;16123715;19;129417;-60
2022/09/27 06:35:16;;;;;;;1.85;0.10;;;;;;;18.85;52.82;99854.25;16129389;19;131215;-52
2022/09/27 06:40:38;;;;;;;0.45;0.30;;;;;;;18.88;52.42;99859.25;16125395;19;129667;-52
2022/09/27 06:46:04;;;;;;;9.93;0.73;;;;;;;18.92;52.52;99854.81;16125706;19;129676;-51
2022/09/27 06:51:26;;;;;;;7.65;0.43;;;;;;;18.90;52.63;99857.03;16127818;19;130075;-65
2022/09/27 06:56:48;;;;;;;5.93;0.40;;;;;;;;;;16127567;19;129888;-67
2022/09/27 07:02:09;;;;;;;6.65;0.68;;;;;;;18.96;52.73;99855.09;16128360;19;130034;-69
2022/09/27 07:07:31;;;;;;;2.88;0.38;;;;;;;19.03;52.48;99854.81;16126889;19;130438;-70
2022/09/27 07:12:54;;;;;;;5.72;0.90;;;;;;;19.06;52.38;99871.75;16126564;19;130621;-62
2022/09/27 07:18:16;;;;;;;4.10;0.30;;;;;;;19.06;52.49;99874.53;16127343;19;134153;-59
2022/09/27 07:23:38;;;;;;;3.35;0.50;;;;;;;19.07;52.59;99878.97;16128481;19;129916;-51
2022/09/27 07:29:00;;;;;;;2.97;0.20;;;;;;;19.10;52.31;99885.03;16127449;19;130155;-55
2022/09/27 07:34:22;;;;;;;2.05;0.45;;;;;;;19.12;52.51;99885.59;16122899;19;129661;-53
2022/09/27 07:39:43;;;;;;;5.75;0.40;;;;;;;19.14;52.60;99877.84;16123094;19;130118;-58
2022/09/27 07:45:06;;;;;;;4.47;0.30;;;;;;;19.17;52.59;99885.63;16120402;19;129385;-63
2022/09/27 07:50:29;;;;;;;4.35;0.60;;;;;;;19.22;51.89;99885.66;16126473;19;130369;-60
2022/09/27 07:55:52;;;;;;;6.53;0.50;;;;;;;19.26;51.34;99892.31;16121908;19;130578;-59
2022/09/27 08:01:14;;;;;;;1.52;0.35;;;;;;;19.31;51.47;99894.25;16123130;19;130173;-62
2022/09/27 08:06:36;;;;;;;3.30;0.65;;;;;;;19.31;50.93;99897.88;16123944;19;130387;-65
2022/09/27 08:11:57;;;;;;;5.63;0.77;;;;;;;19.30;51.33;99909.22;16123471;19;129833;-64
2022/09/27 08:17:19;;;;;;;4.05;0.50;;;;;;;19.25;51.02;99896.19;16127334;19;128950;-64
2022/09/27 08:22:44;;;;;;;5.03;0.60;;;;;;;19.23;51.03;99903.94;16123117;19;130101;-64
2022/09/27 08:28:06;;;;;;;2.85;0.40;;;;;;;19.21;51.40;99911.72;16124006;19;129543;-65
2022/09/27 08:33:28;;;;;;;3.17;0.50;;;;;;;19.20;51.17;99918.34;16123105;19;129186;-61
2022/09/27 08:38:57;;;;;;;12.85;0.68;;;;;;;19.26;51.65;99910.91;16121787;19;130075;-63
2022/09/27 08:44:35;;;;;;;12.20;0.97;;;;;;;19.38;51.15;99912.28;16119953;19;129479;-53
2022/09/27 08:50:15;;;;;;;6.57;0.77;;;;;;;19.44;50.98;99921.44;16129471;19;129566;-57
2022/09/27 08:55:41;;;;;;;5.60;0.85;;;;;;;19.46;51.25;99929.47;16135881;19;129240;-54
2022/09/27 09:01:11;;;;;;;6.47;0.68;;;;;;;19.47;50.80;99936.69;16134571;19;130505;-61
2022/09/27 09:07:00;;;;;;;5.22;0.60;;;;;;;19.43;50.97;99930.88;16135923;19;129345;-59
2022/09/27 09:12:48;;;;;;;7.57;0.90;;;;;;;19.43;50.83;99935.59;16132055;19;129192;-61
2022/09/27 09:18:15;;;;;;;4.00;0.50;;;;;;;19.41;51.02;99935.03;16133844;19;129935;-54
2022/09/27 09:23:53;;;;;;;6.78;0.80;;;;;;;19.41;51.20;99926.72;16132548;19;129705;-56
2022/09/27 09:29:27;;;;;;;10.73;0.88;;;;;;;19.42;50.87;99929.22;16130668;19;129682;-55
2022/09/27 09:34:57;;;;;;;4.13;0.75;;;;;;;19.43;51.25;99925.34;16129936;19;130000;-62
2022/09/27 09:40:27;;;;;;;4.53;0.50;;;;;;;19.44;51.01;99915.09;16127192;19;129634;-60
2022/09/27 09:45:56;;;;;;;2.80;0.50;;;;;;;19.41;50.73;99915.63;16129165;19;129495;-60
2022/09/27 09:51:28;;;;;;;2.17;0.50;;;;;;;19.40;50.87;99919.50;16129687;19;129626;-54
2022/09/27 09:57:04;;;;;;;6.20;0.60;;;;;;;19.35;50.07;99912.84;16131904;19;129523;-62
2022/09/27 10:02:31;;;;;;;4.93;0.80;;;;;;;19.33;49.56;99917.81;16124904;19;129730;-59
2022/09/27 10:07:58;;;;;;;3.45;0.70;;;;;;;19.38;49.70;99917.84;16130224;19;129783;-47
2022/09/27 10:13:21;;;;;;;7.28;0.80;;;;;;;19.40;49.08;99919.50;16125957;19;129684;-48
2022/09/27 10:18:44;;;;;;;3.38;0.70;;;;;;;19.43;49.30;99924.50;16124033;19;130634;-67
2022/09/27 10:24:16;;;;;;;6.15;0.77;;;;;;;19.43;48.76;99919.78;16125685;19;131002;-65
2022/09/27 10:29:39;;;;;;;6.72;0.98;;;;;;;19.42;49.18;99920.88;16124979;19;130279;-64
2022/09/27 10:35:30;;;;;;;2.88;0.65;;;;;;;19.43;49.30;99918.97;16128490;19;129422;-63
2022/09/27 10:40:54;;;;;;;4.45;0.90;;;;;;;19.38;49.40;99917.84;16126812;19;129464;-61
2022/09/27 10:46:33;;;;;;;4.88;0.60;;;;;;;19.38;49.30;99915.06;16124848;19;129898;-62
2022/09/27 10:52:07;;;;;;;7.53;0.80;;;;;;;19.37;49.52;99910.63;16123167;19;130543;-64
2022/09/27 10:57:30;;;;;;;2.38;0.63;;;;;;;19.33;49.30;99912.28;16122408;19;130067;-63
2022/09/27 11:02:56;;;;;;;6.22;1.00;;;;;;;19.30;49.55;99904.53;16116003;19;129555;-63
2022/09/27 11:08:18;;;;;;;6.72;0.80;;;;;;;19.27;49.32;99895.91;16123860;19;129351;-63
2022/09/27 11:13:40;;;;;;;5.95;0.70;;;;;;;19.20;49.17;99904.50;16120435;19;129565;-62
2022/09/27 11:19:20;;;;;;;11.02;1.10;;;;;;;19.13;47.98;99898.38;16125288;19;129268;-62
2022/09/27 11:25:03;;;;;;;7.80;1.20;;;;;;;19.06;47.77;99893.94;16122834;19;129830;-62
2022/09/27 11:30:34;;;;;;;5.88;1.35;;;;;;;19.00;47.10;99883.13;16120680;19;130999;-62
2022/09/27 11:36:03;;;;;;;3.58;1.20;;;;;;;18.94;47.06;99885.03;16124680;19;134446;-63
2022/09/27 11:41:50;;;;;;;2.33;0.85;;;;;;;18.88;46.65;99869.50;16121304;19;130331;-62
2022/09/27 11:47:19;;;;;;;6.72;1.52;;;;;;;18.89;46.71;99860.06;16115776;19;129537;-55
2022/09/27 11:53:23;;;;;;;7.50;1.13;;;;;;;19.05;46.38;99864.53;16123465;19;130461;-52
2022/09/27 11:59:22;;;;;;;4.57;1.58;;;;;;;19.20;45.56;99857.34;16119558;19;129719;-61
2022/09/27 12:04:57;;;;;;;9.80;1.58;;;;;;;19.32;44.83;99852.38;16120036;19;129786;-59
2022/09/27 12:10:20;;;;;;;7.80;1.75;;;;;;;19.38;45.05;99865.16;16120400;19;129707;-49
2022/09/27 12:15:46;;;;;;;4.97;1.30;;;;;;;19.46;44.76;99857.38;16121828;19;129090;-60
2022/09/27 12:21:09;;;;;;;7.60;1.65;;;;;;;19.50;44.60;99856.56;16119796;19;130349;-60
2022/09/27 12:26:43;;;;;;;2.67;1.33;;;;;;;19.52;44.17;99861.81;16135071;19;130928;-60
2022/09/27 12:32:18;;;;;;;4.93;1.25;;;;;;;19.47;43.38;99886.78;16136018;19;130401;-61
2022/09/27 12:37:47;;;;;;;3.13;0.77;;;;;;;19.42;44.40;99875.69;16142447;19;129425;-62
2022/09/27 12:43:18;;;;;;;3.72;1.00;;;;;;;19.41;42.41;99871.25;16139675;19;129102;-61
2022/09/27 12:49:03;;;;;;;4.72;1.00;;;;;;;19.41;43.27;99871.25;16136401;19;130200;-61
2022/09/27 12:54:52;;;;;;;3.25;0.70;;;;;;;19.45;41.52;99861.25;16135094;19;129024;-50
2022/09/27 13:00:20;;;;;;;4.65;0.90;;;;;;;19.56;41.93;99851.00;16135099;19;130018;-52
2022/09/27 13:05:58;;;;;;;4.57;1.42;;;;;;;19.71;42.20;99850.97;16133078;19;130318;-51
2022/09/27 13:11:38;;;;;;;13.38;1.95;;;;;;;19.83;42.73;99834.00;16130991;19;129502;-61
2022/09/27 13:17:00;;;;;;;7.43;1.77;;;;;;;19.88;42.50;99825.69;16131394;19;129768;-60
2022/09/27 13:22:36;;;;;;;7.25;1.15;;;;;;;19.94;43.04;99829.28;16127863;19;129419;-60
2022/09/27 13:27:57;;;;;;;5.70;1.13;;;;;;;19.95;43.20;99822.59;16131915;19;129285;-61
2022/09/27 13:33:42;;;;;;;6.95;1.35;;;;;;;19.93;43.45;99811.81;16133544;19;129751;-58
2022/09/27 13:39:05;;;;;;;6.85;1.15;;;;;;;19.88;43.27;99820.13;16129653;19;129625;-49
2022/09/27 13:44:47;;;;;;;9.75;2.35;;;;;;;19.86;43.68;99811.25;16130810;19;129431;-54
2022/09/27 13:50:17;;;;;;;2.63;0.60;;;;;;;19.82;43.73;99810.13;16130360;19;129474;-53
2022/09/27 13:55:50;;;;;;;9.68;1.00;;;;;;;19.80;44.14;99823.50;16131723;19;129921;-60
2022/09/27 14:01:11;;;;;;;7.10;1.05;;;;;;;19.75;44.14;99832.66;16129809;19;130171;-56
2022/09/27 14:06:40;;;;;;;3.80;0.68;;;;;;;19.71;44.47;99834.31;16129321;19;130233;-51
2022/09/27 14:12:10;;;;;;;1.35;0.60;;;;;;;19.72;44.84;99824.03;16127506;19;130044;-52
2022/09/27 14:17:33;;;;;;;2.15;0.65;;;;;;;19.66;44.90;99832.41;16129730;19;129167;-58
2022/09/27 14:22:54;;;;;;;4.65;0.60;;;;;;;19.63;45.01;99835.72;16129251;19;129117;-59
2022/09/27 14:28:25;;;;;;;2.97;0.57;;;;;;;19.61;44.69;99837.94;16129112;19;131876;-63
2022/09/27 14:33:47;;;;;;;6.15;0.70;;;;;;;19.55;44.92;99841.84;16125715;19;130125;-56
2022/09/27 14:39:14;;;;;;;3.50;0.65;;;;;;;19.55;45.32;99827.97;16127287;19;130797;-58
2022/09/27 14:44:42;;;;;;;1.95;0.50;;;;;;;19.52;45.08;99809.09;16128178;19;130895;-52
2022/09/27 14:50:19;;;;;;;1.73;0.73;;;;;;;19.53;45.09;99805.22;16123290;19;130224;-60
2022/09/27 14:55:44;;;;;;;3.15;0.70;;;;;;;19.50;45.57;99797.47;16123194;19;130011;-62
2022/09/27 15:01:05;;;;;;;2.60;0.50;;;;;;;19.47;45.30;99806.34;16122709;19;130554;-69
2022/09/27 15:06:27;;;;;;;4.93;0.70;;;;;;;19.45;45.96;99808.53;16122145;19;129466;-69
2022/09/27 15:11:55;;;;;;;2.72;1.30;;;;;;;19.44;46.02;99806.91;16121774;19;129184;-72
2022/09/27 15:17:20;;;;;;;8.90;4.45;;;;;;;19.41;45.88;99791.63;16118011;19;129643;-63
2022/09/27 15:22:46;;;;;;;11.48;3.92;;;;;;;19.41;45.68;99790.81;16124056;19;129392;-63
2022/09/27 15:28:10;;;;;;;9.00;4.60;;;;;;;19.43;45.71;99785.84;16121224;19;129757;-61
2022/09/27 15:33:35;;;;;;;12.23;4.40;;;;;;;19.42;45.70;99779.44;16124215;19;130916;-62
2022/09/27 15:39:09;;;;;;;11.33;3.60;;;;;;;19.46;45.81;99744.50;16121412;19;130672;-62
2022/09/27 15:44:48;;;;;;;12.68;5.10;;;;;;;19.47;46.13;99737.84;16121439;19;129505;-62
2022/09/27 15:50:19;;;;;;;9.10;3.40;;;;;;;19.49;46.63;99741.16;16122435;19;129481;-62
2022/09/27 15:55:42;;;;;;;7.85;3.42;;;;;;;19.48;46.73;99736.72;16121164;19;130150;-62
2022/09/27 16:01:05;;;;;;;7.30;3.45;;;;;;;19.49;47.26;99727.28;16133754;19;130276;-62
2022/09/27 16:06:27;;;;;;;16.67;3.35;;;;;;;19.51;47.19;99725.03;16138439;19;129450;-62
2022/09/27 16:11:49;;;;;;;9.10;2.92;;;;;;;19.53;47.78;99711.72;16137003;19;129597;-62
2022/09/27 16:17:11;;;;;;;8.52;3.17;;;;;;;19.56;47.56;99706.72;16134493;19;131358;-62
2022/09/27 16:22:33;;;;;;;7.15;2.72;;;;;;;19.57;47.48;99706.44;16137956;19;129600;-62
2022/09/27 16:27:59;;;;;;;10.30;2.50;;;;;;;19.61;47.54;99701.19;16136336;19;129400;-62
2022/09/27 16:33:21;;;;;;;5.93;2.08;;;;;;;19.61;47.46;99704.78;16131855;19;129442;-62
2022/09/27 16:38:43;;;;;;;6.32;2.05;;;;;;;19.61;47.71;99704.78;16131513;19;129950;-61
2022/09/27 16:44:12;;;;;;;4.75;1.90;;;;;;;19.64;47.90;99703.38;16130498;19;129816;-62
2022/09/27 16:55:22;;;;;;;6.40;1.90;;;;;;;19.64;47.60;99698.66;16128069;19;130452;-60
2022/09/27 17:00:44;;;;;;;3.63;1.52;;;;;;;19.64;47.90;99682.03;16125436;19;132922;-60
2022/09/27 17:06:06;;;;;;;4.53;1.38;;;;;;;19.66;47.95;99671.47;16131649;19;130079;-60
2022/09/27 17:11:28;;;;;;;3.08;1.30;;;;;;;19.66;47.92;99667.84;16129109;19;129746;-60
2022/09/27 17:16:51;;;;;;;4.68;1.48;;;;;;;19.65;48.44;99658.72;16131292;19;129627;-60
2022/09/27 17:22:13;;;;;;;3.97;1.35;;;;;;;19.62;48.35;99650.94;16131855;19;129646;-58
2022/09/27 17:27:34;;;;;;;5.70;1.17;;;;;;;19.61;48.70;99646.50;16131133;19;129717;-61
2022/09/27 17:32:57;;;;;;;5.53;1.33;;;;;;;19.61;48.95;99643.72;16129338;19;133838;-63
2022/09/27 17:38:19;;;;;;;2.67;1.10;;;;;;;19.60;49.01;99630.97;16128804;19;130516;-56
2022/09/27 17:43:48;;;;;;;3.78;1.45;;;;;;;19.60;49.14;99636.53;16130912;19;129760;-55
2022/09/27 17:54:56;;;;;;;5.50;1.02;;;;;;;19.59;49.04;99651.50;16127141;19;134707;-58
2022/09/27 18:00:19;;;;;;;4.40;1.10;;;;;;;19.58;48.98;99654.56;16131152;19;129928;-61
2022/09/27 18:05:41;;;;;;;18.55;1.00;;;;;;;19.57;49.32;99658.47;16127462;19;130662;-54
2022/09/27 18:11:04;;;;;;;2.25;0.90;;;;;;;19.56;49.16;99646.56;16127023;19;132411;-51
2022/09/27 18:16:33;;;;;;;2.28;0.80;;;;;;;19.55;48.96;99639.34;16128250;19;130805;-61
2022/09/27 18:21:55;;;;;;;9.30;1.35;;;;;;;19.54;49.16;99643.22;16126960;19;129585;-62
2022/09/27 18:27:18;;;;;;;10.48;1.42;;;;;;;19.61;49.20;99649.28;16122588;19;129875;-61
2022/09/27 18:32:40;;;;;;;14.02;1.30;;;;;;;19.87;48.85;99651.94;16124324;19;129973;-61
2022/09/27 18:38:02;;;;;;;8.07;1.10;;;;;;;20.20;48.41;99649.53;16121811;19;129996;-61
2022/09/27 18:43:24;;;;;;;8.02;1.00;;;;;;;20.42;48.44;99684.41;16123635;19;129718;-61
2022/09/27 18:48:46;;;;;;;5.97;0.90;;;;;;;20.54;48.26;99712.66;16125354;19;130570;-61
2022/09/27 18:54:19;;;;;;;8.55;0.70;;;;;;;20.57;47.49;99714.00;16125207;19;129598;-61
2022/09/27 18:59:40;;;;;;;5.93;0.90;;;;;;;20.54;47.08;99722.91;16129457;19;129815;-61
2022/09/27 19:05:02;;;;;;;13.80;1.52;;;;;;;20.51;47.50;99710.44;16124840;19;129595;-61
2022/09/27 19:10:24;;;;;;;5.70;0.80;;;;;;;20.48;47.09;99724.91;16123823;19;129535;-60
2022/09/27 19:15:56;;;;;;;9.80;0.82;;;;;;;20.43;47.14;99716.63;16125083;19;129122;-58
2022/09/27 19:21:21;;;;;;;4.65;0.70;;;;;;;20.36;47.51;99711.38;16122689;19;130168;-60
2022/09/27 19:26:43;;;;;;;5.33;0.80;;;;;;;20.30;47.54;99693.09;16123681;19;129666;-60
2022/09/27 19:32:05;;;;;;;11.95;0.82;;;;;;;20.24;47.46;99688.69;16122997;19;129889;-60
2022/09/27 19:37:26;;;;;;;10.00;0.80;;;;;;;20.17;47.60;99654.84;16123002;19;129880;-60
2022/09/27 19:42:52;;;;;;;10.77;1.07;;;;;;;20.09;47.96;99668.22;16121754;19;132373;-61
2022/09/27 19:48:14;;;;;;;12.38;0.90;;;;;;;20.04;48.23;99684.91;16123070;19;130063;-59
2022/09/27 19:53:35;;;;;;;9.10;0.90;;;;;;;20.00;48.07;99683.81;16123419;19;129816;-60
2022/09/27 19:58:57;;;;;;;7.63;0.85;;;;;;;19.99;48.27;99679.38;16121024;19;129611;-61
2022/09/27 20:04:19;;;;;;;7.88;0.93;;;;;;;20.00;48.50;99678.25;16121778;19;130464;-61
2022/09/27 20:09:46;;;;;;;2.03;0.65;;;;;;;19.99;48.70;99683.00;16120357;19;129390;-61
2022/09/27 20:15:08;;;;;;;7.43;1.23;;;;;;;19.95;48.77;99684.63;16122131;19;129454;-61
2022/09/27 20:20:30;;;;;;;9.55;0.90;;;;;;;19.97;48.79;99695.47;16123173;19;129331;-52
2022/09/27 20:25:51;;;;;;;3.97;1.02;;;;;;;19.97;48.70;99682.41;16124076;19;129755;-58
2022/09/27 20:31:16;;;;;;;14.88;1.00;;;;;;;19.96;48.59;99677.97;16116807;19;129547;-57
2022/09/27 20:36:43;;;;;;;12.47;1.60;;;;;;;19.94;48.49;99663.53;16121548;19;129431;-60
2022/09/27 20:42:05;;;;;;;8.73;1.30;;;;;;;19.89;48.71;99655.25;16116135;19;129412;-58
2022/09/27 20:47:27;;;;;;;7.22;0.80;;;;;;;19.81;48.54;99642.81;16129903;19;130097;-59
2022/09/27 20:52:49;;;;;;;7.03;0.75;;;;;;;19.78;48.53;99642.56;16133915;19;130949;-59
2022/09/27 20:58:10;;;;;;;7.63;1.10;;;;;;;19.74;48.81;99624.81;16129529;19;130850;-60
2022/09/27 21:03:33;;;;;;;4.70;0.73;;;;;;;19.69;48.69;99607.06;16134033;19;129538;-58
2022/09/27 21:08:55;;;;;;;7.43;1.08;;;;;;;19.66;48.75;99609.59;16130894;19;130122;-57
2022/09/27 21:14:16;;;;;;;4.28;0.70;;;;;;;19.64;48.80;99600.72;16127755;19;130589;-60
2022/09/27 21:19:38;;;;;;;6.28;0.70;;;;;;;19.61;48.54;99604.91;16129032;19;129908;-59
2022/09/27 21:25:00;;;;;;;1.85;0.60;;;;;;;19.57;48.58;99592.69;16128487;19;130976;-60
2022/09/27 21:30:23;;;;;;;2.42;0.73;;;;;;;19.56;48.74;99601.31;16130248;19;130746;-55
2022/09/27 21:35:48;;;;;;;1.30;0.40;;;;;;;19.53;48.71;99611.88;16131145;19;129640;-58
2022/09/27 21:41:15;;;;;;;6.20;0.90;;;;;;;19.52;49.03;99623.25;16133134;19;129951;-58
2022/09/27 21:46:39;;;;;;;4.03;0.40;;;;;;;19.49;48.78;99618.28;16129618;19;129563;-60
2022/09/27 21:52:01;;;;;;;3.88;0.40;;;;;;;19.45;49.03;99618.00;16129002;19;129881;-57
2022/09/27 21:57:23;;;;;;;1.40;0.50;;;;;;;19.43;48.74;99617.47;16131554;19;130702;-60
2022/09/27 22:02:44;;;;;;;1.75;0.40;;;;;;;19.41;49.12;99610.53;16133193;19;129570;-60
2022/09/27 22:08:06;;;;;;;3.50;0.65;;;;;;;19.37;49.13;99605.56;16132598;19;129550;-58
2022/09/27 22:13:28;;;;;;;2.72;0.28;;;;;;;19.35;48.67;99605.00;16130528;19;130614;-60
2022/09/27 22:18:51;;;;;;;0.45;0.22;;;;;;;19.34;48.68;99597.81;16128041;19;129525;-60
2022/09/27 22:24:16;;;;;;;2.58;0.57;;;;;;;19.33;49.08;99598.09;16128866;19;129811;-59
2022/09/27 22:29:37;;;;;;;1.45;0.30;;;;;;;19.30;48.69;99588.41;16131732;19;130835;-64
2022/09/27 22:34:59;;;;;;;1.45;0.30;;;;;;;19.28;48.94;99590.63;16130980;19;129834;-62
2022/09/27 22:40:21;;;;;;;1.95;0.30;;;;;;;19.28;48.77;99593.41;16128560;19;129881;-58
2022/09/27 22:45:42;;;;;;;1.23;0.35;;;;;;;19.25;49.17;99591.19;16129597;19;130920;-62
2022/09/27 22:51:06;;;;;;;0.22;0.20;;;;;;;19.23;49.16;99587.88;16126030;19;130503;-60
2022/09/27 22:56:28;;;;;;;0.32;0.20;;;;;;;19.21;49.19;99584.53;16129179;19;129490;-57
2022/09/27 23:01:50;;;;;;;0.70;0.30;;;;;;;19.19;49.16;99582.03;16124670;19;129216;-57
2022/09/27 23:07:12;;;;;;;0.55;0.20;;;;;;;19.18;49.20;99587.88;16125128;19;130146;-57
2022/09/27 23:12:33;;;;;;;1.60;0.20;;;;;;;19.17;49.15;99577.88;16126194;19;130543;-57
2022/09/27 23:17:55;;;;;;;0.55;0.20;;;;;;;19.15;48.72;99578.16;16125129;19;128979;-60
2022/09/27 23:23:17;;;;;;;0.70;0.45;;;;;;;19.14;48.78;99575.69;16122890;19;130742;-60
2022/09/27 23:28:39;;;;;;;0.10;0.10;;;;;;;19.13;49.14;99582.34;16125480;19;129454;-60
2022/09/27 23:34:03;;;;;;;4.78;0.40;;;;;;;19.12;49.15;99577.91;16124158;19;129791;-60
2022/09/27 23:39:25;;;;;;;1.00;0.28;;;;;;;19.10;49.03;99577.34;16125112;19;129810;-60
2022/09/27 23:44:46;;;;;;;1.52;0.30;;;;;;;19.10;48.83;99588.44;16124864;19;129294;-60
2022/09/27 23:50:08;;;;;;;0.20;0.20;;;;;;;19.08;48.74;99592.31;16123642;19;129406;-60
2022/09/27 23:55:30;;;;;;;1.33;0.20;;;;;;;19.06;48.91;99577.94;16123029;19;129554;-60
